Terminal Aerodrome Forecast
Issued by NWS Tulsa, OK

Current Version | Previous Version | Text Only | Print | Product List | Glossary On
Versions: 1 2 3 4 5 6 7 8 9 10 11 12 13 14
000
FTUS44 KTSA 271700
TAFFSM
TAF
KFSM 271730Z 2718/2818 29008KT P6SM SCT020 OVC050
      TEMPO 2718/2721 BKN019
     FM272100 32007KT P6SM OVC020
      TEMPO 2721/2801 3SM -RA OVC015
     FM280900 33006KT P6SM BKN100
     FM281200 VRB04KT P6SM BKN250=

USA.gov is the U.S. government's official web portal to all federal, state and local government web resources and services.